< < Back
Terminal Aerodrome Forecast


Current Version              Previous Versions:   1  2  3  4  5  6  7  8  9  

Terminal Aerodrome Forecast

319
FTUS44 KBMX 301728
TAFTCL
TAF
KTCL 301728Z 3018/3118 09010KT P6SM SCT050
     FM310200 08003KT P6SM SKC=

Latest METAR

351
SAUS70 KWBC 311400 RRL
MTRTCL
METAR KTCL 311353Z 01004KT 10SM CLR 28/22 A2998 RMK AO2 SLP149
T02780217


USA.gov is the U.S. government's official web portal to all federal, state and local government web resources and services.